sensor_id;sensor_type;location;lat;lon;timestamp;temperature;humidity
33827;DHT22;20128;45.582;5.298;2023-10-19T00:00:48;19.00;96.90
33827;DHT22;20128;45.582;5.298;2023-10-19T00:03:19;19.00;97.10
33827;DHT22;20128;45.582;5.298;2023-10-19T00:05:45;19.10;97.00
33827;DHT22;20128;45.582;5.298;2023-10-19T00:08:12;19.00;96.90
33827;DHT22;20128;45.582;5.298;2023-10-19T00:10:38;19.00;97.00
33827;DHT22;20128;45.582;5.298;2023-10-19T00:13:05;19.00;97.20
33827;DHT22;20128;45.582;5.298;2023-10-19T00:15:35;19.00;97.40
33827;DHT22;20128;45.582;5.298;2023-10-19T00:18:05;19.00;97.40
33827;DHT22;20128;45.582;5.298;2023-10-19T00:20:47;18.90;97.40
33827;DHT22;20128;45.582;5.298;2023-10-19T00:23:30;18.90;97.50
33827;DHT22;20128;45.582;5.298;2023-10-19T00:25:59;18.80;97.80
33827;DHT22;20128;45.582;5.298;2023-10-19T00:28:26;18.80;98.20
33827;DHT22;20128;45.582;5.298;2023-10-19T00:30:52;18.80;98.20
33827;DHT22;20128;45.582;5.298;2023-10-19T00:33:19;18.80;98.60
33827;DHT22;20128;45.582;5.298;2023-10-19T00:35:52;18.80;98.60
33827;DHT22;20128;45.582;5.298;2023-10-19T00:38:40;18.80;98.70
33827;DHT22;20128;45.582;5.298;2023-10-19T00:41:15;18.80;98.80
33827;DHT22;20128;45.582;5.298;2023-10-19T00:43:53;18.80;98.70
33827;DHT22;20128;45.582;5.298;2023-10-19T00:46:37;18.80;98.70
33827;DHT22;20128;45.582;5.298;2023-10-19T00:49:06;18.80;98.80
33827;DHT22;20128;45.582;5.298;2023-10-19T00:51:37;18.90;98.90
33827;DHT22;20128;45.582;5.298;2023-10-19T00:54:11;18.90;98.80
33827;DHT22;20128;45.582;5.298;2023-10-19T00:56:45;18.90;98.90
33827;DHT22;20128;45.582;5.298;2023-10-19T00:59:17;18.90;98.90
33827;DHT22;20128;45.582;5.298;2023-10-19T01:01:51;19.00;99.10
33827;DHT22;20128;45.582;5.298;2023-10-19T01:04:20;19.00;99.10
33827;DHT22;20128;45.582;5.298;2023-10-19T01:06:51;19.10;98.90
33827;DHT22;20128;45.582;5.298;2023-10-19T01:09:29;19.00;98.60
33827;DHT22;20128;45.582;5.298;2023-10-19T01:12:00;18.90;98.60
33827;DHT22;20128;45.582;5.298;2023-10-19T01:14:31;18.90;98.80
33827;DHT22;20128;45.582;5.298;2023-10-19T01:16:57;18.90;98.80
33827;DHT22;20128;45.582;5.298;2023-10-19T01:19:24;18.90;98.80
33827;DHT22;20128;45.582;5.298;2023-10-19T01:21:52;19.00;99.10
33827;DHT22;20128;45.582;5.298;2023-10-19T01:24:24;19.10;99.10
33827;DHT22;20128;45.582;5.298;2023-10-19T01:27:08;19.10;98.70
33827;DHT22;20128;45.582;5.298;2023-10-19T01:29:37;19.10;98.50
33827;DHT22;20128;45.582;5.298;2023-10-19T01:32:04;19.00;98.30
33827;DHT22;20128;45.582;5.298;2023-10-19T01:34:37;19.00;98.20
33827;DHT22;20128;45.582;5.298;2023-10-19T01:37:03;19.00;98.20
33827;DHT22;20128;45.582;5.298;2023-10-19T01:39:33;18.90;98.20
33827;DHT22;20128;45.582;5.298;2023-10-19T01:42:02;18.90;98.30
33827;DHT22;20128;45.582;5.298;2023-10-19T01:44:30;18.90;98.30
33827;DHT22;20128;45.582;5.298;2023-10-19T01:46:56;18.90;98.30
33827;DHT22;20128;45.582;5.298;2023-10-19T01:49:22;18.80;98.30
33827;DHT22;20128;45.582;5.298;2023-10-19T01:51:54;18.80;98.60
33827;DHT22;20128;45.582;5.298;2023-10-19T01:54:23;18.80;98.70
33827;DHT22;20128;45.582;5.298;2023-10-19T01:56:54;18.70;98.80
33827;DHT22;20128;45.582;5.298;2023-10-19T01:59:23;18.70;98.80
33827;DHT22;20128;45.582;5.298;2023-10-19T02:01:55;18.70;98.80
33827;DHT22;20128;45.582;5.298;2023-10-19T02:04:21;18.70;98.90
33827;DHT22;20128;45.582;5.298;2023-10-19T02:06:47;18.70;98.90
33827;DHT22;20128;45.582;5.298;2023-10-19T02:09:14;18.70;99.00
33827;DHT22;20128;45.582;5.298;2023-10-19T02:11:40;18.70;99.20
33827;DHT22;20128;45.582;5.298;2023-10-19T02:14:11;18.80;99.20
33827;DHT22;20128;45.582;5.298;2023-10-19T02:16:48;18.70;99.10
33827;DHT22;20128;45.582;5.298;2023-10-19T02:19:16;18.70;99.20
33827;DHT22;20128;45.582;5.298;2023-10-19T02:21:42;18.70;99.20
33827;DHT22;20128;45.582;5.298;2023-10-19T02:24:10;18.70;99.20
33827;DHT22;20128;45.582;5.298;2023-10-19T02:26:40;18.70;99.30
33827;DHT22;20128;45.582;5.298;2023-10-19T02:29:06;18.70;99.30
33827;DHT22;20128;45.582;5.298;2023-10-19T02:31:40;18.70;99.40
33827;DHT22;20128;45.582;5.298;2023-10-19T02:34:10;18.70;99.60
33827;DHT22;20128;45.582;5.298;2023-10-19T02:36:37;18.70;99.50
33827;DHT22;20128;45.582;5.298;2023-10-19T02:39:05;18.60;99.50
33827;DHT22;20128;45.582;5.298;2023-10-19T02:41:39;18.60;99.70
33827;DHT22;20128;45.582;5.298;2023-10-19T02:44:08;18.50;99.90
33827;DHT22;20128;45.582;5.298;2023-10-19T02:46:34;18.50;99.90
33827;DHT22;20128;45.582;5.298;2023-10-19T02:49:03;18.50;99.90
33827;DHT22;20128;45.582;5.298;2023-10-19T02:51:30;18.50;99.90
33827;DHT22;20128;45.582;5.298;2023-10-19T02:53:56;18.40;99.90
33827;DHT22;20128;45.582;5.298;2023-10-19T02:56:25;18.50;99.90
33827;DHT22;20128;45.582;5.298;2023-10-19T02:58:52;18.40;99.90
33827;DHT22;20128;45.582;5.298;2023-10-19T03:01:19;18.40;99.90
33827;DHT22;20128;45.582;5.298;2023-10-19T03:03:50;18.40;99.90
33827;DHT22;20128;45.582;5.298;2023-10-19T03:06:22;18.40;99.90
33827;DHT22;20128;45.582;5.298;2023-10-19T03:08:49;18.30;99.90
33827;DHT22;20128;45.582;5.298;2023-10-19T03:11:26;18.40;99.90
33827;DHT22;20128;45.582;5.298;2023-10-19T03:13:56;18.40;99.90
33827;DHT22;20128;45.582;5.298;2023-10-19T03:16:23;18.30;99.90
33827;DHT22;20128;45.582;5.298;2023-10-19T03:18:49;18.30;99.90
33827;DHT22;20128;45.582;5.298;2023-10-19T03:21:16;18.30;99.90
33827;DHT22;20128;45.582;5.298;2023-10-19T03:23:42;18.30;99.90
33827;DHT22;20128;45.582;5.298;2023-10-19T03:26:08;18.20;99.90
33827;DHT22;20128;45.582;5.298;2023-10-19T03:28:48;18.20;99.90
33827;DHT22;20128;45.582;5.298;2023-10-19T03:31:14;18.20;99.90
33827;DHT22;20128;45.582;5.298;2023-10-19T03:33:45;18.20;99.90
33827;DHT22;20128;45.582;5.298;2023-10-19T03:36:15;18.10;99.90
33827;DHT22;20128;45.582;5.298;2023-10-19T03:38:43;18.20;99.90
33827;DHT22;20128;45.582;5.298;2023-10-19T03:41:09;18.20;99.90
33827;DHT22;20128;45.582;5.298;2023-10-19T03:43:36;18.10;99.90
33827;DHT22;20128;45.582;5.298;2023-10-19T03:46:05;18.10;99.90
33827;DHT22;20128;45.582;5.298;2023-10-19T03:48:44;18.10;99.90
33827;DHT22;20128;45.582;5.298;2023-10-19T03:51:12;18.10;99.90
33827;DHT22;20128;45.582;5.298;2023-10-19T03:53:39;18.10;99.90
33827;DHT22;20128;45.582;5.298;2023-10-19T03:56:09;18.20;99.90
33827;DHT22;20128;45.582;5.298;2023-10-19T03:58:37;18.20;99.90
33827;DHT22;20128;45.582;5.298;2023-10-19T04:01:04;18.10;99.90
33827;DHT22;20128;45.582;5.298;2023-10-19T04:03:30;18.20;99.90
33827;DHT22;20128;45.582;5.298;2023-10-19T04:05:56;18.20;99.90
33827;DHT22;20128;45.582;5.298;2023-10-19T04:08:26;18.20;99.90
33827;DHT22;20128;45.582;5.298;2023-10-19T04:10:52;18.30;99.90
33827;DHT22;20128;45.582;5.298;2023-10-19T04:13:34;18.30;99.90
33827;DHT22;20128;45.582;5.298;2023-10-19T04:16:02;18.40;99.90
33827;DHT22;20128;45.582;5.298;2023-10-19T04:18:27;18.40;99.90
33827;DHT22;20128;45.582;5.298;2023-10-19T04:20:53;18.40;99.90
33827;DHT22;20128;45.582;5.298;2023-10-19T04:23:19;18.40;99.90
33827;DHT22;20128;45.582;5.298;2023-10-19T04:25:47;18.40;99.90
33827;DHT22;20128;45.582;5.298;2023-10-19T04:28:13;18.50;99.90
33827;DHT22;20128;45.582;5.298;2023-10-19T04:30:39;18.50;99.90
33827;DHT22;20128;45.582;5.298;2023-10-19T04:33:05;18.50;99.90
33827;DHT22;20128;45.582;5.298;2023-10-19T04:35:35;18.50;99.90
33827;DHT22;20128;45.582;5.298;2023-10-19T04:38:03;18.50;99.90
33827;DHT22;20128;45.582;5.298;2023-10-19T04:40:28;18.50;99.90
33827;DHT22;20128;45.582;5.298;2023-10-19T04:42:54;18.50;99.90
33827;DHT22;20128;45.582;5.298;2023-10-19T04:45:20;18.50;99.90
33827;DHT22;20128;45.582;5.298;2023-10-19T04:47:49;18.50;99.90
33827;DHT22;20128;45.582;5.298;2023-10-19T04:50:17;18.60;99.90
33827;DHT22;20128;45.582;5.298;2023-10-19T04:52:42;18.60;99.90
33827;DHT22;20128;45.582;5.298;2023-10-19T04:55:08;18.50;99.90
33827;DHT22;20128;45.582;5.298;2023-10-19T04:57:34;18.50;99.90
33827;DHT22;20128;45.582;5.298;2023-10-19T05:00:00;18.50;99.90
33827;DHT22;20128;45.582;5.298;2023-10-19T05:02:26;18.60;99.90
33827;DHT22;20128;45.582;5.298;2023-10-19T05:04:51;18.60;99.90
33827;DHT22;20128;45.582;5.298;2023-10-19T05:07:17;18.60;99.90
33827;DHT22;20128;45.582;5.298;2023-10-19T05:09:44;18.70;99.90
33827;DHT22;20128;45.582;5.298;2023-10-19T05:12:10;18.70;99.90
33827;DHT22;20128;45.582;5.298;2023-10-19T05:14:37;18.70;99.90
33827;DHT22;20128;45.582;5.298;2023-10-19T05:17:03;18.70;99.90
33827;DHT22;20128;45.582;5.298;2023-10-19T05:19:33;18.70;99.90
33827;DHT22;20128;45.582;5.298;2023-10-19T05:22:02;18.70;99.90
33827;DHT22;20128;45.582;5.298;2023-10-19T05:24:28;18.70;99.90
33827;DHT22;20128;45.582;5.298;2023-10-19T05:26:55;18.70;99.90
33827;DHT22;20128;45.582;5.298;2023-10-19T05:29:21;18.70;99.90
33827;DHT22;20128;45.582;5.298;2023-10-19T05:31:47;18.80;99.90
33827;DHT22;20128;45.582;5.298;2023-10-19T05:34:19;18.80;99.90
33827;DHT22;20128;45.582;5.298;2023-10-19T05:36:45;18.80;99.90
33827;DHT22;20128;45.582;5.298;2023-10-19T05:39:14;18.70;99.90
33827;DHT22;20128;45.582;5.298;2023-10-19T05:41:40;18.60;99.90
33827;DHT22;20128;45.582;5.298;2023-10-19T05:44:06;18.50;99.90
33827;DHT22;20128;45.582;5.298;2023-10-19T05:46:31;18.40;99.90
33827;DHT22;20128;45.582;5.298;2023-10-19T05:48:57;18.40;99.90
33827;DHT22;20128;45.582;5.298;2023-10-19T05:51:23;18.30;99.90
33827;DHT22;20128;45.582;5.298;2023-10-19T05:53:50;18.30;99.90
33827;DHT22;20128;45.582;5.298;2023-10-19T05:56:16;18.30;99.90
33827;DHT22;20128;45.582;5.298;2023-10-19T05:58:43;18.20;99.90
33827;DHT22;20128;45.582;5.298;2023-10-19T06:01:09;18.20;99.90
33827;DHT22;20128;45.582;5.298;2023-10-19T06:03:35;18.10;99.90
33827;DHT22;20128;45.582;5.298;2023-10-19T06:06:01;18.10;99.90
33827;DHT22;20128;45.582;5.298;2023-10-19T06:08:26;18.00;99.90
33827;DHT22;20128;45.582;5.298;2023-10-19T06:10:53;18.00;99.90
33827;DHT22;20128;45.582;5.298;2023-10-19T06:13:19;18.00;99.90
33827;DHT22;20128;45.582;5.298;2023-10-19T06:15:45;18.00;99.90
33827;DHT22;20128;45.582;5.298;2023-10-19T06:18:11;18.00;99.90
33827;DHT22;20128;45.582;5.298;2023-10-19T06:20:43;18.10;99.90
33827;DHT22;20128;45.582;5.298;2023-10-19T06:23:09;18.10;99.90
33827;DHT22;20128;45.582;5.298;2023-10-19T06:25:37;18.20;99.90
33827;DHT22;20128;45.582;5.298;2023-10-19T06:28:04;18.20;99.90
33827;DHT22;20128;45.582;5.298;2023-10-19T06:30:30;18.40;99.90
33827;DHT22;20128;45.582;5.298;2023-10-19T06:32:57;18.40;99.90
33827;DHT22;20128;45.582;5.298;2023-10-19T06:35:31;18.40;99.90
33827;DHT22;20128;45.582;5.298;2023-10-19T06:37:58;18.40;99.90
33827;DHT22;20128;45.582;5.298;2023-10-19T06:40:27;18.40;99.90
33827;DHT22;20128;45.582;5.298;2023-10-19T06:42:57;18.40;99.90
33827;DHT22;20128;45.582;5.298;2023-10-19T06:45:22;18.30;99.90
33827;DHT22;20128;45.582;5.298;2023-10-19T06:52:42;18.30;99.90
33827;DHT22;20128;45.582;5.298;2023-10-19T06:55:09;18.40;99.90
33827;DHT22;20128;45.582;5.298;2023-10-19T06:57:52;18.40;99.90
33827;DHT22;20128;45.582;5.298;2023-10-19T07:00:21;18.40;99.90
33827;DHT22;20128;45.582;5.298;2023-10-19T07:02:51;18.40;99.90
33827;DHT22;20128;45.582;5.298;2023-10-19T07:05:17;18.40;99.90
33827;DHT22;20128;45.582;5.298;2023-10-19T07:07:44;18.20;99.90
33827;DHT22;20128;45.582;5.298;2023-10-19T07:10:11;18.20;99.90
33827;DHT22;20128;45.582;5.298;2023-10-19T07:12:39;18.10;99.90
33827;DHT22;20128;45.582;5.298;2023-10-19T07:15:06;18.10;99.90
33827;DHT22;20128;45.582;5.298;2023-10-19T07:17:35;18.20;99.90
33827;DHT22;20128;45.582;5.298;2023-10-19T07:20:04;18.20;99.90
33827;DHT22;20128;45.582;5.298;2023-10-19T07:22:32;18.10;99.90
33827;DHT22;20128;45.582;5.298;2023-10-19T07:24:58;17.90;99.90
33827;DHT22;20128;45.582;5.298;2023-10-19T07:27:23;17.90;99.90
33827;DHT22;20128;45.582;5.298;2023-10-19T07:29:53;17.90;99.90
33827;DHT22;20128;45.582;5.298;2023-10-19T07:32:18;17.90;99.90
33827;DHT22;20128;45.582;5.298;2023-10-19T07:34:44;17.90;99.90
33827;DHT22;20128;45.582;5.298;2023-10-19T07:37:10;17.90;99.90
33827;DHT22;20128;45.582;5.298;2023-10-19T07:39:44;18.10;99.90
33827;DHT22;20128;45.582;5.298;2023-10-19T07:42:10;18.20;99.90
33827;DHT22;20128;45.582;5.298;2023-10-19T07:44:36;18.30;99.90
33827;DHT22;20128;45.582;5.298;2023-10-19T07:47:02;18.50;99.90
33827;DHT22;20128;45.582;5.298;2023-10-19T07:49:28;18.50;99.90
33827;DHT22;20128;45.582;5.298;2023-10-19T07:51:54;18.60;99.90
33827;DHT22;20128;45.582;5.298;2023-10-19T07:54:20;18.70;99.90
33827;DHT22;20128;45.582;5.298;2023-10-19T07:56:46;18.70;99.90
33827;DHT22;20128;45.582;5.298;2023-10-19T07:59:12;18.50;99.90
33827;DHT22;20128;45.582;5.298;2023-10-19T08:01:39;18.40;99.90
33827;DHT22;20128;45.582;5.298;2023-10-19T08:04:04;18.50;99.90
33827;DHT22;20128;45.582;5.298;2023-10-19T08:06:31;18.60;99.90
33827;DHT22;20128;45.582;5.298;2023-10-19T08:08:57;18.70;99.90
33827;DHT22;20128;45.582;5.298;2023-10-19T08:11:23;18.80;99.90
33827;DHT22;20128;45.582;5.298;2023-10-19T08:13:49;18.90;99.90
33827;DHT22;20128;45.582;5.298;2023-10-19T08:16:15;19.00;99.90
33827;DHT22;20128;45.582;5.298;2023-10-19T08:18:42;19.00;99.90
33827;DHT22;20128;45.582;5.298;2023-10-19T08:21:08;19.00;99.90
33827;DHT22;20128;45.582;5.298;2023-10-19T08:23:34;19.00;99.90
33827;DHT22;20128;45.582;5.298;2023-10-19T08:26:00;18.90;99.90
33827;DHT22;20128;45.582;5.298;2023-10-19T08:28:25;18.90;99.90
33827;DHT22;20128;45.582;5.298;2023-10-19T08:30:51;18.90;99.90
33827;DHT22;20128;45.582;5.298;2023-10-19T08:33:27;19.00;99.90
33827;DHT22;20128;45.582;5.298;2023-10-19T08:35:56;19.00;99.90
33827;DHT22;20128;45.582;5.298;2023-10-19T08:40:49;19.00;99.90
33827;DHT22;20128;45.582;5.298;2023-10-19T08:43:15;19.10;99.90
33827;DHT22;20128;45.582;5.298;2023-10-19T08:45:43;19.10;99.90
33827;DHT22;20128;45.582;5.298;2023-10-19T08:48:10;19.00;99.90
33827;DHT22;20128;45.582;5.298;2023-10-19T08:50:36;19.10;99.90
33827;DHT22;20128;45.582;5.298;2023-10-19T08:53:07;19.00;99.90
33827;DHT22;20128;45.582;5.298;2023-10-19T08:55:39;19.00;99.90
33827;DHT22;20128;45.582;5.298;2023-10-19T08:58:05;19.10;99.90
33827;DHT22;20128;45.582;5.298;2023-10-19T09:00:51;19.10;99.90
33827;DHT22;20128;45.582;5.298;2023-10-19T09:03:20;19.20;99.90
33827;DHT22;20128;45.582;5.298;2023-10-19T09:05:47;19.20;99.90
33827;DHT22;20128;45.582;5.298;2023-10-19T09:08:17;19.30;99.90
33827;DHT22;20128;45.582;5.298;2023-10-19T09:10:44;19.40;99.90
33827;DHT22;20128;45.582;5.298;2023-10-19T09:13:11;19.40;99.90
33827;DHT22;20128;45.582;5.298;2023-10-19T09:15:39;19.40;99.90
33827;DHT22;20128;45.582;5.298;2023-10-19T09:18:15;19.50;99.90
33827;DHT22;20128;45.582;5.298;2023-10-19T09:20:41;19.50;99.90
33827;DHT22;20128;45.582;5.298;2023-10-19T09:23:08;19.50;99.90
33827;DHT22;20128;45.582;5.298;2023-10-19T09:25:33;19.50;99.90
33827;DHT22;20128;45.582;5.298;2023-10-19T09:28:01;19.40;99.90
33827;DHT22;20128;45.582;5.298;2023-10-19T09:30:29;19.50;99.90
33827;DHT22;20128;45.582;5.298;2023-10-19T09:32:56;19.60;99.90
33827;DHT22;20128;45.582;5.298;2023-10-19T09:35:24;19.60;99.90
33827;DHT22;20128;45.582;5.298;2023-10-19T09:37:56;19.70;99.90
33827;DHT22;20128;45.582;5.298;2023-10-19T09:40:23;19.80;99.90
33827;DHT22;20128;45.582;5.298;2023-10-19T09:42:52;19.70;99.90
33827;DHT22;20128;45.582;5.298;2023-10-19T09:45:19;19.70;99.90
33827;DHT22;20128;45.582;5.298;2023-10-19T09:47:50;19.70;99.90
33827;DHT22;20128;45.582;5.298;2023-10-19T09:50:16;19.70;99.90
33827;DHT22;20128;45.582;5.298;2023-10-19T09:52:42;19.70;99.90
33827;DHT22;20128;45.582;5.298;2023-10-19T09:55:15;19.70;99.90
33827;DHT22;20128;45.582;5.298;2023-10-19T09:57:55;19.90;99.90
33827;DHT22;20128;45.582;5.298;2023-10-19T10:00:22;20.00;99.90
33827;DHT22;20128;45.582;5.298;2023-10-19T10:02:51;20.10;99.90
33827;DHT22;20128;45.582;5.298;2023-10-19T10:10:50;20.30;99.90
33827;DHT22;20128;45.582;5.298;2023-10-19T10:15:57;20.20;99.90
33827;DHT22;20128;45.582;5.298;2023-10-19T10:18:28;20.20;99.90
33827;DHT22;20128;45.582;5.298;2023-10-19T10:21:08;20.30;99.90
33827;DHT22;20128;45.582;5.298;2023-10-19T10:23:55;20.20;99.90
33827;DHT22;20128;45.582;5.298;2023-10-19T10:26:26;20.10;99.90
33827;DHT22;20128;45.582;5.298;2023-10-19T10:31:42;20.30;99.90
33827;DHT22;20128;45.582;5.298;2023-10-19T10:37:11;20.30;99.90
33827;DHT22;20128;45.582;5.298;2023-10-19T10:39:39;20.40;99.90
33827;DHT22;20128;45.582;5.298;2023-10-19T10:42:10;20.40;99.90
33827;DHT22;20128;45.582;5.298;2023-10-19T10:44:37;20.50;99.90
33827;DHT22;20128;45.582;5.298;2023-10-19T10:47:26;20.60;99.90
33827;DHT22;20128;45.582;5.298;2023-10-19T10:49:59;20.60;99.90
33827;DHT22;20128;45.582;5.298;2023-10-19T10:52:31;20.70;99.90
33827;DHT22;20128;45.582;5.298;2023-10-19T10:55:13;20.90;99.90
33827;DHT22;20128;45.582;5.298;2023-10-19T10:57:41;20.90;99.90
33827;DHT22;20128;45.582;5.298;2023-10-19T11:00:12;20.80;99.90
33827;DHT22;20128;45.582;5.298;2023-10-19T11:02:42;20.80;99.90
33827;DHT22;20128;45.582;5.298;2023-10-19T11:05:12;20.70;99.90
33827;DHT22;20128;45.582;5.298;2023-10-19T11:10:30;20.70;99.90
33827;DHT22;20128;45.582;5.298;2023-10-19T11:13:03;20.70;99.90
33827;DHT22;20128;45.582;5.298;2023-10-19T11:15:29;20.70;99.90
33827;DHT22;20128;45.582;5.298;2023-10-19T11:17:55;20.70;99.90
33827;DHT22;20128;45.582;5.298;2023-10-19T11:20:22;20.70;99.90
33827;DHT22;20128;45.582;5.298;2023-10-19T11:22:52;20.70;99.90
33827;DHT22;20128;45.582;5.298;2023-10-19T11:27:48;20.70;99.90
33827;DHT22;20128;45.582;5.298;2023-10-19T11:30:31;20.70;99.90
33827;DHT22;20128;45.582;5.298;2023-10-19T11:32:58;20.80;99.90
33827;DHT22;20128;45.582;5.298;2023-10-19T11:35:29;20.80;99.90
33827;DHT22;20128;45.582;5.298;2023-10-19T11:37:58;20.90;99.90
33827;DHT22;20128;45.582;5.298;2023-10-19T11:40:25;20.90;99.90
33827;DHT22;20128;45.582;5.298;2023-10-19T11:42:51;21.00;99.90
33827;DHT22;20128;45.582;5.298;2023-10-19T11:45:17;21.00;99.90
33827;DHT22;20128;45.582;5.298;2023-10-19T11:47:44;21.00;99.90
33827;DHT22;20128;45.582;5.298;2023-10-19T11:50:11;21.00;99.90
33827;DHT22;20128;45.582;5.298;2023-10-19T11:52:40;21.00;99.90
33827;DHT22;20128;45.582;5.298;2023-10-19T11:55:06;21.00;99.90
33827;DHT22;20128;45.582;5.298;2023-10-19T11:57:31;21.00;99.90
33827;DHT22;20128;45.582;5.298;2023-10-19T11:59:58;21.00;99.90
33827;DHT22;20128;45.582;5.298;2023-10-19T12:02:24;21.00;99.90
33827;DHT22;20128;45.582;5.298;2023-10-19T12:04:50;21.00;99.90
33827;DHT22;20128;45.582;5.298;2023-10-19T12:07:16;21.00;99.90
33827;DHT22;20128;45.582;5.298;2023-10-19T12:09:41;21.00;99.90
33827;DHT22;20128;45.582;5.298;2023-10-19T12:12:07;21.00;99.90
33827;DHT22;20128;45.582;5.298;2023-10-19T12:14:35;21.00;99.90
33827;DHT22;20128;45.582;5.298;2023-10-19T12:17:01;21.10;99.90
33827;DHT22;20128;45.582;5.298;2023-10-19T12:19:30;21.10;99.90
33827;DHT22;20128;45.582;5.298;2023-10-19T12:21:56;21.00;99.90
33827;DHT22;20128;45.582;5.298;2023-10-19T12:24:22;21.00;99.90
33827;DHT22;20128;45.582;5.298;2023-10-19T12:26:48;21.00;99.90
33827;DHT22;20128;45.582;5.298;2023-10-19T12:29:14;21.00;99.90
33827;DHT22;20128;45.582;5.298;2023-10-19T12:31:42;21.10;99.90
33827;DHT22;20128;45.582;5.298;2023-10-19T12:34:08;21.00;99.90
33827;DHT22;20128;45.582;5.298;2023-10-19T12:36:37;21.00;99.90
33827;DHT22;20128;45.582;5.298;2023-10-19T12:39:03;21.00;99.90
33827;DHT22;20128;45.582;5.298;2023-10-19T12:41:33;21.10;99.90
33827;DHT22;20128;45.582;5.298;2023-10-19T12:43:59;21.00;99.90
33827;DHT22;20128;45.582;5.298;2023-10-19T12:46:28;21.00;99.90
33827;DHT22;20128;45.582;5.298;2023-10-19T12:48:55;21.00;99.90
33827;DHT22;20128;45.582;5.298;2023-10-19T12:51:22;21.00;99.90
33827;DHT22;20128;45.582;5.298;2023-10-19T12:53:54;21.00;99.90
33827;DHT22;20128;45.582;5.298;2023-10-19T12:56:21;21.00;99.90
33827;DHT22;20128;45.582;5.298;2023-10-19T12:58:50;21.00;99.90
33827;DHT22;20128;45.582;5.298;2023-10-19T13:01:16;21.00;99.90
33827;DHT22;20128;45.582;5.298;2023-10-19T13:03:43;21.00;99.90
33827;DHT22;20128;45.582;5.298;2023-10-19T13:06:11;21.00;99.90
33827;DHT22;20128;45.582;5.298;2023-10-19T13:08:38;21.00;99.90
33827;DHT22;20128;45.582;5.298;2023-10-19T13:11:06;21.10;99.90
33827;DHT22;20128;45.582;5.298;2023-10-19T13:13:32;21.00;99.90
33827;DHT22;20128;45.582;5.298;2023-10-19T13:15:58;21.10;99.90
33827;DHT22;20128;45.582;5.298;2023-10-19T13:18:25;21.00;99.90
33827;DHT22;20128;45.582;5.298;2023-10-19T13:20:53;21.10;99.90
33827;DHT22;20128;45.582;5.298;2023-10-19T13:23:20;21.00;99.90
33827;DHT22;20128;45.582;5.298;2023-10-19T13:25:49;21.10;99.90
33827;DHT22;20128;45.582;5.298;2023-10-19T13:28:16;21.10;99.90
33827;DHT22;20128;45.582;5.298;2023-10-19T13:30:47;21.00;99.90
33827;DHT22;20128;45.582;5.298;2023-10-19T13:33:14;21.00;99.90
33827;DHT22;20128;45.582;5.298;2023-10-19T13:35:41;21.00;99.90
33827;DHT22;20128;45.582;5.298;2023-10-19T13:38:08;21.00;99.90
33827;DHT22;20128;45.582;5.298;2023-10-19T13:40:40;21.00;99.90
33827;DHT22;20128;45.582;5.298;2023-10-19T13:43:08;21.00;99.00
33827;DHT22;20128;45.582;5.298;2023-10-19T13:45:35;20.90;98.10
33827;DHT22;20128;45.582;5.298;2023-10-19T13:48:05;20.90;96.40
33827;DHT22;20128;45.582;5.298;2023-10-19T13:50:31;20.90;95.20
33827;DHT22;20128;45.582;5.298;2023-10-19T13:52:58;20.90;94.90
33827;DHT22;20128;45.582;5.298;2023-10-19T13:55:26;20.90;94.10
33827;DHT22;20128;45.582;5.298;2023-10-19T13:57:51;20.90;93.50
33827;DHT22;20128;45.582;5.298;2023-10-19T14:00:20;20.90;93.30
33827;DHT22;20128;45.582;5.298;2023-10-19T14:02:50;20.90;93.40
33827;DHT22;20128;45.582;5.298;2023-10-19T14:05:17;20.90;93.20
33827;DHT22;20128;45.582;5.298;2023-10-19T14:07:44;20.90;93.00
33827;DHT22;20128;45.582;5.298;2023-10-19T14:10:10;20.90;93.20
33827;DHT22;20128;45.582;5.298;2023-10-19T14:12:39;20.90;93.00
33827;DHT22;20128;45.582;5.298;2023-10-19T14:15:18;20.90;93.10
33827;DHT22;20128;45.582;5.298;2023-10-19T14:17:45;20.90;92.90
33827;DHT22;20128;45.582;5.298;2023-10-19T14:20:12;20.90;93.20
33827;DHT22;20128;45.582;5.298;2023-10-19T14:22:41;20.90;93.30
33827;DHT22;20128;45.582;5.298;2023-10-19T14:25:09;20.90;93.80
33827;DHT22;20128;45.582;5.298;2023-10-19T14:27:47;20.90;94.10
33827;DHT22;20128;45.582;5.298;2023-10-19T14:30:15;20.90;94.30
33827;DHT22;20128;45.582;5.298;2023-10-19T14:32:45;20.90;94.50
33827;DHT22;20128;45.582;5.298;2023-10-19T14:35:13;20.90;95.00
33827;DHT22;20128;45.582;5.298;2023-10-19T14:37:41;20.90;95.20
33827;DHT22;20128;45.582;5.298;2023-10-19T14:40:11;20.80;95.40
33827;DHT22;20128;45.582;5.298;2023-10-19T14:42:40;20.80;95.70
33827;DHT22;20128;45.582;5.298;2023-10-19T14:45:12;20.80;96.00
33827;DHT22;20128;45.582;5.298;2023-10-19T14:47:40;20.80;96.30
33827;DHT22;20128;45.582;5.298;2023-10-19T14:52:34;20.80;96.80
33827;DHT22;20128;45.582;5.298;2023-10-19T14:55:00;20.80;96.90
33827;DHT22;20128;45.582;5.298;2023-10-19T14:57:25;20.80;96.70
33827;DHT22;20128;45.582;5.298;2023-10-19T14:59:51;20.80;96.80
33827;DHT22;20128;45.582;5.298;2023-10-19T15:02:17;20.80;96.80
33827;DHT22;20128;45.582;5.298;2023-10-19T15:04:45;20.80;96.90
33827;DHT22;20128;45.582;5.298;2023-10-19T15:07:11;20.80;96.80
33827;DHT22;20128;45.582;5.298;2023-10-19T15:09:37;20.80;96.70
33827;DHT22;20128;45.582;5.298;2023-10-19T15:12:03;20.80;96.70
33827;DHT22;20128;45.582;5.298;2023-10-19T15:14:29;20.80;96.80
33827;DHT22;20128;45.582;5.298;2023-10-19T15:16:54;20.70;96.90
33827;DHT22;20128;45.582;5.298;2023-10-19T15:19:20;20.70;97.00
33827;DHT22;20128;45.582;5.298;2023-10-19T15:21:46;20.70;97.00
33827;DHT22;20128;45.582;5.298;2023-10-19T15:24:11;20.70;97.10
33827;DHT22;20128;45.582;5.298;2023-10-19T15:26:38;20.70;97.10
33827;DHT22;20128;45.582;5.298;2023-10-19T15:29:05;20.60;97.00
33827;DHT22;20128;45.582;5.298;2023-10-19T15:31:31;20.60;97.10
33827;DHT22;20128;45.582;5.298;2023-10-19T15:33:56;20.60;97.10
33827;DHT22;20128;45.582;5.298;2023-10-19T15:36:23;20.60;97.10
33827;DHT22;20128;45.582;5.298;2023-10-19T15:38:48;20.60;97.00
33827;DHT22;20128;45.582;5.298;2023-10-19T15:41:16;20.60;96.50
33827;DHT22;20128;45.582;5.298;2023-10-19T15:43:42;20.50;96.60
33827;DHT22;20128;45.582;5.298;2023-10-19T15:46:07;20.50;96.60
33827;DHT22;20128;45.582;5.298;2023-10-19T15:48:39;20.50;96.80
33827;DHT22;20128;45.582;5.298;2023-10-19T15:51:05;20.50;96.20
33827;DHT22;20128;45.582;5.298;2023-10-19T15:53:34;20.60;95.40
33827;DHT22;20128;45.582;5.298;2023-10-19T15:56:00;20.60;95.40
33827;DHT22;20128;45.582;5.298;2023-10-19T15:58:26;20.60;94.90
33827;DHT22;20128;45.582;5.298;2023-10-19T16:00:52;20.60;94.60
33827;DHT22;20128;45.582;5.298;2023-10-19T16:03:17;20.60;94.90
33827;DHT22;20128;45.582;5.298;2023-10-19T16:05:43;20.60;94.10